createdAt,value
2023-02-24T00:02:01.419Z,33.28
2023-02-24T00:06:59.999Z,26.10
2023-02-24T00:09:31.495Z,36.63
2023-02-24T00:12:02.527Z,34.03
2023-02-24T00:14:33.198Z,36.10
2023-02-24T00:17:03.119Z,30.85
2023-02-24T00:19:33.865Z,35.65
2023-02-24T00:22:03.397Z,30.65
2023-02-24T00:24:32.525Z,33.92
2023-02-24T00:27:07.533Z,33.67
2023-02-24T00:29:37.696Z,34.65
2023-02-24T00:32:12.310Z,31.67
2023-02-24T00:34:41.944Z,30.33
2023-02-24T00:37:10.513Z,30.52
2023-02-24T00:39:41.502Z,34.95
2023-02-24T00:42:12.543Z,31.38
2023-02-24T00:44:44.939Z,35.03
2023-02-24T00:47:17.244Z,32.50
2023-02-24T00:49:45.950Z,31.95
2023-02-24T00:52:17.195Z,32.08
2023-02-24T00:54:47.078Z,27.27
2023-02-24T00:57:17.471Z,29.75
2023-02-24T00:59:47.457Z,32.15
2023-02-24T01:02:17.368Z,34.10
2023-02-24T01:04:46.420Z,29.45
2023-02-24T01:07:16.105Z,31.27
2023-02-24T01:09:45.018Z,31.67
2023-02-24T01:12:32.320Z,39.13
2023-02-24T01:15:02.963Z,37.25
2023-02-24T01:17:32.720Z,32.17
2023-02-24T01:20:15.709Z,32.85
2023-02-24T01:22:44.772Z,39.08
2023-02-24T01:25:13.610Z,33.05
2023-02-24T01:27:43.273Z,33.95
2023-02-24T01:30:15.743Z,36.47
2023-02-24T01:32:47.201Z,32.83
2023-02-24T01:35:16.664Z,34.92
2023-02-24T01:37:45.483Z,29.58
2023-02-24T01:40:21.465Z,43.08
2023-02-24T01:42:50.992Z,40.90
2023-02-24T01:45:28.603Z,38.30
2023-02-24T01:48:03.266Z,39.80
2023-02-24T01:50:33.575Z,35.83
2023-02-24T01:53:06.535Z,42.40
2023-02-24T01:55:38.240Z,37.33
2023-02-24T01:58:15.493Z,42.10
2023-02-24T02:00:47.039Z,40.17
2023-02-24T02:03:27.629Z,36.28
2023-02-24T02:06:01.745Z,40.50
2023-02-24T02:08:30.965Z,38.40
2023-02-24T02:11:06.553Z,44.70
2023-02-24T02:13:36.683Z,44.92
2023-02-24T02:16:27.963Z,36.85
2023-02-24T02:19:20.339Z,36.85
2023-02-24T02:22:23.868Z,41.58
2023-02-24T02:24:58.288Z,38.25
2023-02-24T02:28:31.499Z,33.67
2023-02-24T02:31:51.746Z,35.22
2023-02-24T02:34:34.968Z,35.38
2023-02-24T02:37:11.954Z,33.40
2023-02-24T02:39:52.543Z,39.83
2023-02-24T02:42:30.087Z,34.88
2023-02-24T02:45:08.457Z,35.85
2023-02-24T02:47:43.241Z,33.40
2023-02-24T02:50:19.710Z,35.47
2023-02-24T02:52:54.945Z,36.75
2023-02-24T02:55:34.800Z,32.20
2023-02-24T02:58:09.078Z,34.13
2023-02-24T03:00:49.983Z,34.67
2023-02-24T03:03:20.517Z,31.33
2023-02-24T03:05:57.329Z,29.23
2023-02-24T03:08:34.280Z,35.08
2023-02-24T03:11:05.587Z,37.95
2023-02-24T03:13:38.778Z,34.40
2023-02-24T03:16:11.485Z,37.83
2023-02-24T03:18:45.164Z,31.42
2023-02-24T03:21:25.403Z,28.53
2023-02-24T03:23:54.614Z,36.13
2023-02-24T03:26:30.766Z,32.63
2023-02-24T03:29:07.807Z,31.48
2023-02-24T03:31:45.984Z,34.28
2023-02-24T03:34:21.029Z,35.58
2023-02-24T03:36:51.054Z,25.83
2023-02-24T03:39:19.698Z,41.55
2023-02-24T03:42:08.110Z,36.03
2023-02-24T03:44:37.726Z,28.00
2023-02-24T03:47:06.422Z,34.45
2023-02-24T03:49:37.613Z,36.63
2023-02-24T03:52:21.711Z,30.90
2023-02-24T03:55:13.830Z,31.45
2023-02-24T03:57:59.772Z,35.85
2023-02-24T04:00:41.333Z,36.50
2023-02-24T04:03:26.456Z,34.85
2023-02-24T04:06:14.113Z,35.92
2023-02-24T04:08:52.104Z,27.67
2023-02-24T04:11:29.022Z,32.42
2023-02-24T04:14:06.390Z,29.73
2023-02-24T04:16:41.111Z,32.03
2023-02-24T04:21:48.390Z,28.08
2023-02-24T04:24:28.926Z,30.85
2023-02-24T04:27:00.690Z,35.08
2023-02-24T04:29:36.667Z,28.60
2023-02-24T04:32:11.020Z,37.28
2023-02-24T04:34:41.029Z,37.22
2023-02-24T04:37:10.143Z,34.08
2023-02-24T04:39:39.892Z,32.92
2023-02-24T04:42:19.930Z,28.70
2023-02-24T04:44:48.438Z,40.22
2023-02-24T04:47:17.093Z,36.83
2023-02-24T04:49:45.656Z,37.33
2023-02-24T04:52:15.277Z,39.00
2023-02-24T04:54:45.129Z,37.35
2023-02-24T04:57:14.348Z,33.38
2023-02-24T04:59:43.014Z,29.40
2023-02-24T05:02:13.233Z,37.20
2023-02-24T05:04:41.788Z,36.47
2023-02-24T05:07:12.712Z,35.88
2023-02-24T05:09:41.305Z,29.33
2023-02-24T05:12:10.843Z,36.83
2023-02-24T05:14:39.597Z,36.72
2023-02-24T05:17:08.385Z,41.20
2023-02-24T05:19:54.244Z,38.83
2023-02-24T05:22:22.848Z,35.72
2023-02-24T05:24:51.359Z,39.03
2023-02-24T05:27:22.267Z,38.33
2023-02-24T05:29:50.859Z,36.67
2023-02-24T05:32:19.432Z,35.00
2023-02-24T05:34:48.138Z,37.83
2023-02-24T05:37:16.797Z,35.83
2023-02-24T05:39:45.444Z,45.28
2023-02-24T05:42:13.974Z,40.03
2023-02-24T05:44:43.553Z,45.42
2023-02-24T05:47:12.111Z,43.25
2023-02-24T05:49:40.962Z,38.28
2023-02-24T05:52:11.222Z,38.70
2023-02-24T05:54:41.746Z,44.83
2023-02-24T05:57:12.780Z,35.13
2023-02-24T05:59:43.362Z,44.63
2023-02-24T06:02:13.707Z,44.28
2023-02-24T06:04:50.793Z,37.35
2023-02-24T06:07:22.796Z,36.25
2023-02-24T06:09:53.866Z,32.45
2023-02-24T06:12:24.644Z,36.03
2023-02-24T06:14:54.530Z,39.55
2023-02-24T06:17:24.272Z,38.50
2023-02-24T06:19:54.037Z,38.78
2023-02-24T06:22:24.474Z,40.10
2023-02-24T06:24:54.265Z,43.17
2023-02-24T06:27:25.226Z,38.72
2023-02-24T06:29:57.576Z,46.10
2023-02-24T06:32:27.997Z,37.10
2023-02-24T06:34:57.500Z,38.00
2023-02-24T06:37:26.142Z,37.92
2023-02-24T06:39:54.761Z,45.83
2023-02-24T06:42:23.486Z,42.33
2023-02-24T06:44:52.008Z,53.88
2023-02-24T06:47:22.663Z,47.40
2023-02-24T06:49:51.425Z,36.17
2023-02-24T06:52:19.903Z,47.28
2023-02-24T06:54:52.324Z,46.50
2023-02-24T06:57:20.871Z,38.60
2023-02-24T06:59:50.832Z,36.67
2023-02-24T07:02:20.783Z,45.50
2023-02-24T07:04:49.307Z,43.35
2023-02-24T07:07:18.854Z,36.90
2023-02-24T07:09:47.559Z,38.50
2023-02-24T07:12:20.840Z,40.00
2023-02-24T07:14:50.662Z,42.83
2023-02-24T07:17:19.905Z,46.65
2023-02-24T07:19:49.452Z,36.90
2023-02-24T07:22:25.005Z,47.13
2023-02-24T07:25:00.280Z,41.05
2023-02-24T07:27:28.871Z,41.70
2023-02-24T07:29:59.149Z,42.80
2023-02-24T07:32:27.764Z,42.22
2023-02-24T07:34:57.355Z,40.60
2023-02-24T07:37:25.870Z,41.55
2023-02-24T07:39:54.340Z,41.60
2023-02-24T07:42:22.879Z,40.70
2023-02-24T07:44:56.103Z,43.13
2023-02-24T07:47:25.143Z,48.88
2023-02-24T07:49:55.303Z,35.78
2023-02-24T07:52:24.899Z,39.45
2023-02-24T07:54:55.066Z,47.20
2023-02-24T07:57:25.103Z,46.38
2023-02-24T07:59:54.068Z,42.50
2023-02-24T08:02:23.765Z,44.15
2023-02-24T08:04:52.338Z,47.33
2023-02-24T08:07:24.600Z,37.72
2023-02-24T08:10:12.303Z,39.03
2023-02-24T08:12:43.604Z,36.85
2023-02-24T08:15:23.936Z,41.75
2023-02-24T08:17:59.796Z,47.85
2023-02-24T08:20:35.971Z,38.88
2023-02-24T08:23:08.578Z,40.10
2023-02-24T08:25:38.443Z,41.03
2023-02-24T08:28:11.822Z,47.95
2023-02-24T08:30:45.397Z,39.22
2023-02-24T08:33:20.623Z,40.25
2023-02-24T08:36:00.903Z,34.35
2023-02-24T08:38:39.796Z,40.13
2023-02-24T08:41:17.657Z,38.17
2023-02-24T08:43:47.405Z,43.45
2023-02-24T08:46:21.219Z,46.08
2023-02-24T08:48:55.437Z,44.63
2023-02-24T08:51:29.650Z,43.60
2023-02-24T08:54:00.927Z,48.38
2023-02-24T08:56:34.590Z,39.85
2023-02-24T08:59:06.318Z,42.17
2023-02-24T09:01:37.317Z,40.03
2023-02-24T09:04:09.524Z,52.20
2023-02-24T09:06:44.854Z,45.90
2023-02-24T09:09:22.395Z,46.83
2023-02-24T09:11:56.003Z,37.45
2023-02-24T09:14:28.819Z,35.60
2023-02-24T09:17:07.142Z,41.25
2023-02-24T09:20:02.234Z,44.38
2023-02-24T09:22:32.941Z,38.33
2023-02-24T09:25:21.593Z,51.78
2023-02-24T09:27:55.621Z,50.33
2023-02-24T09:30:38.570Z,42.67
2023-02-24T09:33:20.858Z,40.58
2023-02-24T09:36:09.626Z,44.35
2023-02-24T09:39:09.730Z,38.75
2023-02-24T09:41:56.882Z,38.65
2023-02-24T09:44:35.181Z,34.35
2023-02-24T09:47:13.515Z,34.47
2023-02-24T09:49:56.025Z,39.58
2023-02-24T09:52:39.681Z,37.10
2023-02-24T09:55:25.967Z,35.55
2023-02-24T09:58:20.111Z,30.38
2023-02-24T10:01:20.835Z,35.95
2023-02-24T10:04:18.289Z,36.75
2023-02-24T10:06:51.534Z,36.47
2023-02-24T10:09:26.933Z,32.72
2023-02-24T10:12:04.477Z,36.95
2023-02-24T10:14:44.580Z,30.10
2023-02-24T10:17:24.167Z,30.80
2023-02-24T10:20:00.493Z,33.97
2023-02-24T10:22:50.354Z,32.67
2023-02-24T10:25:39.359Z,30.77
2023-02-24T10:28:24.555Z,35.40
2023-02-24T10:33:46.003Z,36.40
2023-02-24T10:36:22.202Z,31.10
2023-02-24T10:38:55.906Z,39.30
2023-02-24T10:41:28.703Z,37.35
2023-02-24T10:43:58.782Z,37.53
2023-02-24T10:46:41.042Z,34.92
2023-02-24T10:49:16.698Z,36.15
2023-02-24T10:51:54.219Z,41.65
2023-02-24T10:54:44.802Z,48.10
2023-02-24T10:57:23.145Z,40.47
2023-02-24T11:00:15.371Z,47.70
2023-02-24T11:03:07.049Z,37.08
2023-02-24T11:06:05.887Z,43.40
2023-02-24T11:08:54.257Z,39.88
2023-02-24T11:11:30.749Z,40.35
2023-02-24T11:14:20.428Z,40.42
2023-02-24T11:17:08.583Z,38.08
2023-02-24T11:19:45.132Z,38.47
2023-02-24T11:22:21.290Z,40.42
2023-02-24T11:24:51.878Z,41.30
2023-02-24T11:27:24.391Z,37.90
2023-02-24T11:30:16.916Z,41.08
2023-02-24T11:33:03.870Z,42.05
2023-02-24T11:35:40.741Z,43.85
2023-02-24T11:38:27.874Z,36.42
2023-02-24T11:41:06.459Z,40.05
2023-02-24T11:43:41.307Z,40.17
2023-02-24T11:48:48.518Z,32.20
2023-02-24T11:51:23.384Z,33.17
2023-02-24T11:53:57.642Z,31.55
2023-02-24T11:56:31.887Z,33.37
2023-02-24T11:59:05.078Z,33.13
2023-02-24T12:01:40.381Z,24.98
2023-02-24T12:04:20.060Z,29.73
2023-02-24T12:06:58.474Z,33.30
2023-02-24T12:09:41.623Z,32.50
2023-02-24T12:12:14.915Z,24.33
2023-02-24T12:14:49.601Z,30.42
2023-02-24T12:17:25.333Z,30.77
2023-02-24T12:20:01.590Z,25.75
2023-02-24T12:22:42.347Z,28.17
2023-02-24T12:25:16.697Z,25.35
2023-02-24T12:28:01.882Z,20.75
2023-02-24T12:33:34.231Z,21.77
2023-02-24T12:36:13.278Z,24.52
2023-02-24T12:38:58.635Z,24.90
2023-02-24T12:41:41.710Z,19.40
2023-02-24T12:44:27.044Z,18.08
2023-02-24T12:47:04.847Z,25.15
2023-02-24T12:49:59.194Z,22.08
2023-02-24T12:52:35.678Z,18.20
2023-02-24T12:55:14.743Z,21.20
2023-02-24T12:57:56.603Z,13.40
2023-02-24T13:00:37.594Z,16.35
2023-02-24T13:03:22.926Z,15.93
2023-02-24T13:06:02.673Z,18.13
2023-02-24T13:08:44.211Z,18.73
2023-02-24T13:11:22.088Z,17.50
2023-02-24T13:14:01.374Z,13.13
2023-02-24T13:16:33.009Z,18.48
2023-02-24T13:19:22.212Z,19.10
2023-02-24T13:22:02.523Z,19.42
2023-02-24T13:24:31.373Z,13.95
2023-02-24T13:27:22.424Z,18.38
2023-02-24T13:29:57.402Z,19.75
2023-02-24T13:32:31.676Z,18.15
2023-02-24T13:35:03.336Z,14.65
2023-02-24T13:37:36.432Z,16.15
2023-02-24T13:40:28.126Z,16.02
2023-02-24T13:43:04.882Z,20.50
2023-02-24T13:45:37.190Z,21.00
2023-02-24T13:48:26.722Z,14.25
2023-02-24T13:51:47.364Z,14.48
2023-02-24T13:54:33.149Z,12.38
2023-02-24T13:57:29.371Z,10.93
2023-02-24T14:00:11.376Z,12.70
2023-02-24T14:02:45.105Z,9.93
2023-02-24T14:05:23.031Z,12.02
2023-02-24T14:07:53.179Z,12.82
2023-02-24T14:10:25.075Z,8.35
2023-02-24T14:13:06.736Z,7.50
2023-02-24T14:15:36.143Z,10.27
2023-02-24T14:18:07.298Z,7.97
2023-02-24T14:20:37.867Z,6.93
2023-02-24T14:23:23.226Z,9.30
2023-02-24T14:25:57.849Z,9.85
2023-02-24T14:28:31.142Z,9.88
2023-02-24T14:31:03.693Z,6.88
2023-02-24T14:33:38.543Z,6.82
2023-02-24T14:38:39.903Z,6.20
2023-02-24T14:41:20.175Z,6.82
2023-02-24T14:43:48.741Z,7.57
2023-02-24T14:46:17.409Z,6.72
2023-02-24T14:48:52.738Z,7.82
2023-02-24T14:51:29.369Z,7.53
2023-02-24T14:54:02.850Z,6.43
2023-02-24T14:56:35.180Z,9.48
2023-02-24T14:59:09.478Z,7.45
2023-02-24T15:01:41.118Z,8.40
2023-02-24T15:04:22.163Z,4.95
2023-02-24T15:06:50.534Z,7.93
2023-02-24T15:09:23.650Z,13.50
2023-02-24T15:11:55.565Z,8.75
2023-02-24T15:14:27.613Z,7.35
2023-02-24T15:17:00.336Z,7.35
2023-02-24T15:19:37.228Z,8.40
2023-02-24T15:22:19.140Z,7.78
2023-02-24T15:24:47.404Z,9.55
2023-02-24T15:27:26.737Z,10.82
2023-02-24T15:30:02.645Z,9.50
2023-02-24T15:32:34.638Z,12.30
2023-02-24T15:35:05.757Z,7.75
2023-02-24T15:37:42.483Z,7.53
2023-02-24T15:40:21.786Z,10.60
2023-02-24T15:42:55.847Z,15.07
2023-02-24T15:45:33.175Z,9.65
2023-02-24T15:48:03.128Z,12.95
2023-02-24T15:50:33.561Z,17.40
2023-02-24T15:53:05.429Z,12.55
2023-02-24T15:55:33.731Z,10.68
2023-02-24T15:58:04.428Z,9.48
2023-02-24T16:00:33.008Z,9.38
2023-02-24T16:03:01.517Z,10.02
2023-02-24T16:05:30.231Z,9.93
2023-02-24T16:07:59.816Z,9.35
2023-02-24T16:10:31.094Z,14.55
2023-02-24T16:13:01.791Z,7.50
2023-02-24T16:15:35.581Z,10.90
2023-02-24T16:18:04.976Z,16.20
2023-02-24T16:20:35.743Z,10.73
2023-02-24T16:23:06.939Z,10.05
2023-02-24T16:25:44.607Z,10.30
2023-02-24T16:28:15.834Z,10.95
2023-02-24T16:30:45.264Z,7.38
2023-02-24T16:33:15.206Z,12.73
2023-02-24T16:35:44.578Z,8.18
2023-02-24T16:38:15.297Z,7.93
2023-02-24T16:40:46.207Z,8.38
2023-02-24T16:43:15.253Z,8.23
2023-02-24T16:45:46.015Z,9.02
2023-02-24T16:48:20.897Z,8.50
2023-02-24T16:50:49.520Z,7.95
2023-02-24T16:53:24.033Z,10.48
2023-02-24T16:55:52.940Z,7.43
2023-02-24T16:58:23.242Z,6.47
2023-02-24T17:00:56.158Z,4.30
2023-02-24T17:03:28.132Z,3.88
2023-02-24T17:05:57.745Z,4.43
2023-02-24T17:08:27.683Z,5.57
2023-02-24T17:10:57.757Z,4.47
2023-02-24T17:13:27.646Z,7.35
2023-02-24T17:15:57.243Z,4.60
2023-02-24T17:18:26.991Z,5.15
2023-02-24T17:20:55.940Z,5.90
2023-02-24T17:23:24.375Z,4.18
2023-02-24T17:25:57.928Z,3.65
2023-02-24T17:28:26.793Z,5.95
2023-02-24T17:30:55.372Z,3.70
2023-02-24T17:33:24.118Z,3.63
2023-02-24T17:35:52.665Z,3.20
2023-02-24T17:38:24.120Z,3.42
2023-02-24T17:40:55.606Z,4.85
2023-02-24T17:43:24.133Z,3.20
2023-02-24T17:45:53.650Z,5.97
2023-02-24T17:48:23.048Z,5.43
2023-02-24T17:50:51.960Z,2.45
2023-02-24T17:53:20.245Z,4.50
2023-02-24T17:56:01.972Z,2.65
2023-02-24T17:58:33.270Z,4.63
2023-02-24T18:01:02.965Z,14.32
2023-02-24T18:03:31.901Z,5.50
2023-02-24T18:06:01.552Z,5.20
2023-02-24T18:08:30.704Z,2.58
2023-02-24T18:11:00.867Z,2.35
2023-02-24T18:13:32.355Z,4.72
2023-02-24T18:16:01.506Z,4.93
2023-02-24T18:18:30.296Z,2.25
2023-02-24T18:21:02.809Z,3.40
2023-02-24T18:23:31.963Z,4.65
2023-02-24T18:26:03.678Z,2.42
2023-02-24T18:28:34.672Z,3.85
2023-02-24T18:31:10.370Z,3.53
2023-02-24T18:33:39.290Z,3.58
2023-02-24T18:36:09.078Z,5.68
2023-02-24T18:38:37.773Z,2.55
2023-02-24T18:41:08.024Z,4.40
2023-02-24T18:43:37.937Z,2.10
2023-02-24T18:46:09.371Z,6.47
2023-02-24T18:48:40.067Z,6.63
2023-02-24T18:51:09.027Z,8.20
2023-02-24T18:53:38.234Z,6.38
2023-02-24T18:56:09.203Z,4.65
2023-02-24T18:58:40.737Z,6.90
2023-02-24T19:01:14.793Z,3.58
2023-02-24T19:03:43.911Z,7.57
2023-02-24T19:06:13.132Z,3.17
2023-02-24T19:08:42.580Z,3.80
2023-02-24T19:11:13.270Z,5.15
2023-02-24T19:13:43.748Z,5.25
2023-02-24T19:16:12.642Z,3.85
2023-02-24T19:18:41.004Z,3.33
2023-02-24T19:21:11.079Z,3.42
2023-02-24T19:23:39.595Z,3.90
2023-02-24T19:26:15.314Z,3.85
2023-02-24T19:28:45.064Z,3.38
2023-02-24T19:31:16.237Z,3.78
2023-02-24T19:33:45.064Z,1.48
2023-02-24T19:36:13.713Z,5.38
2023-02-24T19:38:43.038Z,1.88
2023-02-24T19:41:11.745Z,2.60
2023-02-24T19:43:41.691Z,4.57
2023-02-24T19:46:14.584Z,5.00
2023-02-24T19:48:43.330Z,2.85
2023-02-24T19:51:14.549Z,2.63
2023-02-24T19:53:43.124Z,2.20
2023-02-24T19:56:11.806Z,6.50
2023-02-24T19:58:41.938Z,2.78
2023-02-24T20:01:14.721Z,3.28
2023-02-24T20:03:44.337Z,4.40
2023-02-24T20:06:18.949Z,4.47
2023-02-24T20:11:15.524Z,1.90
2023-02-24T20:13:44.240Z,3.22
2023-02-24T20:16:16.745Z,2.58
2023-02-24T20:18:46.082Z,8.63
2023-02-24T20:21:16.008Z,7.40
2023-02-24T20:23:44.853Z,3.47
2023-02-24T20:26:16.128Z,8.60
2023-02-24T20:28:45.409Z,7.35
2023-02-24T20:31:18.517Z,4.80
2023-02-24T20:33:48.804Z,3.90
2023-02-24T20:36:21.003Z,2.15
2023-02-24T20:38:50.629Z,3.00
2023-02-24T20:41:19.981Z,4.38
2023-02-24T20:43:48.915Z,5.28
2023-02-24T20:46:24.070Z,11.00
2023-02-24T20:48:53.435Z,5.28
2023-02-24T20:51:23.024Z,4.22
2023-02-24T20:53:57.664Z,4.35
2023-02-24T20:56:27.990Z,5.53
2023-02-24T20:59:00.919Z,3.60
2023-02-24T21:01:32.242Z,3.45
2023-02-24T21:04:01.457Z,4.88
2023-02-24T21:06:30.880Z,5.05
2023-02-24T21:08:59.717Z,5.63
2023-02-24T21:11:30.352Z,4.03
2023-02-24T21:14:00.019Z,4.20
2023-02-24T21:16:30.352Z,8.93
2023-02-24T21:18:59.060Z,4.93
2023-02-24T21:21:27.683Z,7.57
2023-02-24T21:23:56.805Z,6.05
2023-02-24T21:26:27.017Z,10.90
2023-02-24T21:28:57.897Z,6.05
2023-02-24T21:31:26.968Z,7.68
2023-02-24T21:33:57.292Z,11.35
2023-02-24T21:36:27.913Z,8.60
2023-02-24T21:38:56.754Z,7.90
2023-02-24T21:41:25.584Z,8.20
2023-02-24T21:43:55.760Z,6.03
2023-02-24T21:46:28.123Z,8.57
2023-02-24T21:48:59.217Z,5.55
2023-02-24T21:51:29.385Z,4.97
2023-02-24T21:53:58.540Z,12.00
2023-02-24T21:56:29.582Z,13.32
2023-02-24T21:59:00.006Z,6.03
2023-02-24T22:01:31.811Z,6.28
2023-02-24T22:04:03.987Z,6.60
2023-02-24T22:06:34.373Z,7.65
2023-02-24T22:09:04.441Z,8.60
2023-02-24T22:11:35.704Z,6.78
2023-02-24T22:14:04.688Z,4.47
2023-02-24T22:16:33.267Z,9.93
2023-02-24T22:19:03.218Z,4.55
2023-02-24T22:21:31.757Z,6.10
2023-02-24T22:24:03.212Z,10.88
2023-02-24T22:26:32.617Z,4.30
2023-02-24T22:29:02.187Z,5.32
2023-02-24T22:31:34.284Z,8.93
2023-02-24T22:34:05.339Z,4.50
2023-02-24T22:36:36.711Z,8.48
2023-02-24T22:39:06.701Z,9.38
2023-02-24T22:41:36.376Z,7.53
2023-02-24T22:44:06.419Z,6.78
2023-02-24T22:46:37.410Z,4.40
2023-02-24T22:49:07.831Z,6.43
2023-02-24T22:51:36.536Z,7.90
2023-02-24T22:54:05.910Z,5.78
2023-02-24T22:56:34.872Z,4.70
2023-02-24T22:59:03.364Z,8.65
2023-02-24T23:01:33.970Z,6.28
2023-02-24T23:04:03.345Z,12.20
2023-02-24T23:06:33.159Z,11.32
2023-02-24T23:09:03.158Z,4.72
2023-02-24T23:11:33.495Z,7.00
2023-02-24T23:14:05.886Z,2.85
2023-02-24T23:16:36.067Z,5.68
2023-02-24T23:19:07.283Z,11.57
2023-02-24T23:21:39.096Z,7.07
2023-02-24T23:24:10.806Z,2.67
2023-02-24T23:26:41.914Z,3.05
2023-02-24T23:29:11.547Z,3.08
2023-02-24T23:31:40.919Z,4.15
2023-02-24T23:34:09.995Z,3.05
2023-02-24T23:36:43.491Z,3.47
2023-02-24T23:39:14.430Z,6.78
2023-02-24T23:41:45.938Z,4.60
2023-02-24T23:44:14.274Z,3.42
2023-02-24T23:46:42.945Z,2.50
2023-02-24T23:49:11.454Z,2.65
2023-02-24T23:51:48.421Z,5.50
2023-02-24T23:54:17.836Z,3.40
2023-02-24T23:56:46.710Z,3.88
2023-02-24T23:59:15.939Z,3.28
